sensor_id;sensor_type;location;lat;lon;timestamp;P1;durP1;ratioP1;P2;durP2;ratioP2
75218;SDS011;63801;49.414;19.474;2023-04-03T00:01:33;8.38;;;4.75;;
75218;SDS011;63801;49.414;19.474;2023-04-03T00:03:33;8.48;;;4.78;;
75218;SDS011;63801;49.414;19.474;2023-04-03T00:05:34;5.93;;;3.70;;
75218;SDS011;63801;49.414;19.474;2023-04-03T00:07:35;7.82;;;3.78;;
75218;SDS011;63801;49.414;19.474;2023-04-03T00:09:35;7.68;;;4.35;;
75218;SDS011;63801;49.414;19.474;2023-04-03T00:11:36;8.98;;;6.20;;
75218;SDS011;63801;49.414;19.474;2023-04-03T00:13:36;7.85;;;4.38;;
75218;SDS011;63801;49.414;19.474;2023-04-03T00:15:38;8.93;;;4.40;;
75218;SDS011;63801;49.414;19.474;2023-04-03T00:17:39;8.25;;;4.25;;
75218;SDS011;63801;49.414;19.474;2023-04-03T00:19:39;7.43;;;3.50;;
75218;SDS011;63801;49.414;19.474;2023-04-03T00:21:40;7.10;;;4.20;;
75218;SDS011;63801;49.414;19.474;2023-04-03T00:23:41;8.10;;;4.30;;
75218;SDS011;63801;49.414;19.474;2023-04-03T00:25:41;11.93;;;4.88;;
75218;SDS011;63801;49.414;19.474;2023-04-03T00:27:42;10.15;;;5.13;;
75218;SDS011;63801;49.414;19.474;2023-04-03T00:29:43;7.07;;;3.83;;
75218;SDS011;63801;49.414;19.474;2023-04-03T00:31:43;8.30;;;3.78;;
75218;SDS011;63801;49.414;19.474;2023-04-03T00:33:43;8.70;;;4.55;;
75218;SDS011;63801;49.414;19.474;2023-04-03T00:35:44;9.18;;;4.45;;
75218;SDS011;63801;49.414;19.474;2023-04-03T00:37:44;7.43;;;4.05;;
75218;SDS011;63801;49.414;19.474;2023-04-03T00:39:45;8.30;;;3.90;;
75218;SDS011;63801;49.414;19.474;2023-04-03T00:41:45;6.68;;;3.72;;
75218;SDS011;63801;49.414;19.474;2023-04-03T00:43:46;8.70;;;4.65;;
75218;SDS011;63801;49.414;19.474;2023-04-03T00:45:48;11.98;;;6.63;;
75218;SDS011;63801;49.414;19.474;2023-04-03T00:47:49;12.50;;;6.07;;
75218;SDS011;63801;49.414;19.474;2023-04-03T00:49:50;7.75;;;4.10;;
75218;SDS011;63801;49.414;19.474;2023-04-03T00:51:51;6.82;;;3.40;;
75218;SDS011;63801;49.414;19.474;2023-04-03T00:53:56;6.60;;;3.00;;
75218;SDS011;63801;49.414;19.474;2023-04-03T00:56:00;5.80;;;3.10;;
75218;SDS011;63801;49.414;19.474;2023-04-03T00:58:00;7.50;;;4.18;;
75218;SDS011;63801;49.414;19.474;2023-04-03T01:00:06;8.63;;;4.57;;
75218;SDS011;63801;49.414;19.474;2023-04-03T01:02:10;7.72;;;3.90;;
75218;SDS011;63801;49.414;19.474;2023-04-03T01:06:30;6.97;;;3.35;;
75218;SDS011;63801;49.414;19.474;2023-04-03T01:08:34;8.07;;;4.20;;
75218;SDS011;63801;49.414;19.474;2023-04-03T01:10:35;7.18;;;3.47;;
75218;SDS011;63801;49.414;19.474;2023-04-03T01:12:37;6.70;;;3.60;;
75218;SDS011;63801;49.414;19.474;2023-04-03T01:14:38;10.68;;;4.78;;
75218;SDS011;63801;49.414;19.474;2023-04-03T01:16:39;4.07;;;2.70;;
75218;SDS011;63801;49.414;19.474;2023-04-03T01:18:39;3.97;;;2.20;;
75218;SDS011;63801;49.414;19.474;2023-04-03T01:20:49;2.53;;;1.80;;
75218;SDS011;63801;49.414;19.474;2023-04-03T01:25:09;18.15;;;6.43;;
75218;SDS011;63801;49.414;19.474;2023-04-03T01:27:10;18.00;;;6.72;;
75218;SDS011;63801;49.414;19.474;2023-04-03T01:29:10;9.70;;;3.95;;
75218;SDS011;63801;49.414;19.474;2023-04-03T01:33:26;9.65;;;4.50;;
75218;SDS011;63801;49.414;19.474;2023-04-03T01:35:26;3.72;;;2.13;;
75218;SDS011;63801;49.414;19.474;2023-04-03T01:37:26;11.13;;;5.28;;
75218;SDS011;63801;49.414;19.474;2023-04-03T01:39:27;4.40;;;2.53;;
75218;SDS011;63801;49.414;19.474;2023-04-03T01:41:27;2.67;;;2.00;;
75218;SDS011;63801;49.414;19.474;2023-04-03T01:43:28;4.60;;;2.20;;
75218;SDS011;63801;49.414;19.474;2023-04-03T01:45:28;3.38;;;2.17;;
75218;SDS011;63801;49.414;19.474;2023-04-03T01:47:29;7.93;;;3.55;;
75218;SDS011;63801;49.414;19.474;2023-04-03T01:49:32;9.20;;;3.22;;
75218;SDS011;63801;49.414;19.474;2023-04-03T01:53:33;2.72;;;1.40;;
75218;SDS011;63801;49.414;19.474;2023-04-03T01:55:34;2.70;;;1.60;;
75218;SDS011;63801;49.414;19.474;2023-04-03T01:57:34;2.60;;;1.30;;
75218;SDS011;63801;49.414;19.474;2023-04-03T01:59:35;3.47;;;1.77;;
75218;SDS011;63801;49.414;19.474;2023-04-03T02:01:35;1.70;;;1.30;;
75218;SDS011;63801;49.414;19.474;2023-04-03T02:03:35;2.08;;;1.27;;
75218;SDS011;63801;49.414;19.474;2023-04-03T02:05:36;2.08;;;1.23;;
75218;SDS011;63801;49.414;19.474;2023-04-03T02:07:37;1.60;;;1.17;;
75218;SDS011;63801;49.414;19.474;2023-04-03T02:09:37;4.38;;;1.83;;
75218;SDS011;63801;49.414;19.474;2023-04-03T02:11:38;2.08;;;1.50;;
75218;SDS011;63801;49.414;19.474;2023-04-03T02:13:38;2.28;;;1.30;;
75218;SDS011;63801;49.414;19.474;2023-04-03T02:15:38;2.00;;;1.30;;
75218;SDS011;63801;49.414;19.474;2023-04-03T02:17:39;2.40;;;1.50;;
75218;SDS011;63801;49.414;19.474;2023-04-03T02:19:40;2.67;;;1.48;;
75218;SDS011;63801;49.414;19.474;2023-04-03T02:21:40;1.45;;;1.30;;
75218;SDS011;63801;49.414;19.474;2023-04-03T02:23:40;1.90;;;1.40;;
75218;SDS011;63801;49.414;19.474;2023-04-03T02:25:41;2.55;;;1.50;;
75218;SDS011;63801;49.414;19.474;2023-04-03T02:27:41;1.85;;;1.38;;
75218;SDS011;63801;49.414;19.474;2023-04-03T02:29:41;2.83;;;2.05;;
75218;SDS011;63801;49.414;19.474;2023-04-03T02:31:42;2.65;;;1.80;;
75218;SDS011;63801;49.414;19.474;2023-04-03T02:33:42;2.50;;;1.70;;
75218;SDS011;63801;49.414;19.474;2023-04-03T02:35:42;3.20;;;1.90;;
75218;SDS011;63801;49.414;19.474;2023-04-03T02:37:42;2.83;;;1.70;;
75218;SDS011;63801;49.414;19.474;2023-04-03T02:39:43;2.83;;;1.80;;
75218;SDS011;63801;49.414;19.474;2023-04-03T02:41:43;3.35;;;2.03;;
75218;SDS011;63801;49.414;19.474;2023-04-03T02:43:43;2.60;;;1.90;;
75218;SDS011;63801;49.414;19.474;2023-04-03T02:45:44;4.55;;;2.35;;
75218;SDS011;63801;49.414;19.474;2023-04-03T02:47:44;3.70;;;2.33;;
75218;SDS011;63801;49.414;19.474;2023-04-03T02:49:45;3.97;;;2.30;;
75218;SDS011;63801;49.414;19.474;2023-04-03T02:51:45;4.55;;;2.50;;
75218;SDS011;63801;49.414;19.474;2023-04-03T02:53:47;4.13;;;2.65;;
75218;SDS011;63801;49.414;19.474;2023-04-03T02:55:47;5.10;;;2.53;;
75218;SDS011;63801;49.414;19.474;2023-04-03T02:57:48;3.10;;;1.85;;
75218;SDS011;63801;49.414;19.474;2023-04-03T02:59:48;6.28;;;2.75;;
75218;SDS011;63801;49.414;19.474;2023-04-03T03:01:48;4.32;;;2.30;;
75218;SDS011;63801;49.414;19.474;2023-04-03T03:03:49;5.00;;;2.47;;
75218;SDS011;63801;49.414;19.474;2023-04-03T03:05:49;4.60;;;2.38;;
75218;SDS011;63801;49.414;19.474;2023-04-03T03:07:50;4.03;;;2.10;;
75218;SDS011;63801;49.414;19.474;2023-04-03T03:09:50;3.92;;;2.30;;
75218;SDS011;63801;49.414;19.474;2023-04-03T03:11:50;4.65;;;2.65;;
75218;SDS011;63801;49.414;19.474;2023-04-03T03:13:50;3.38;;;2.15;;
75218;SDS011;63801;49.414;19.474;2023-04-03T03:15:51;4.15;;;2.10;;
75218;SDS011;63801;49.414;19.474;2023-04-03T03:17:51;5.80;;;2.85;;
75218;SDS011;63801;49.414;19.474;2023-04-03T03:19:52;5.43;;;2.85;;
75218;SDS011;63801;49.414;19.474;2023-04-03T03:21:52;5.72;;;3.05;;
75218;SDS011;63801;49.414;19.474;2023-04-03T03:23:52;4.30;;;2.53;;
75218;SDS011;63801;49.414;19.474;2023-04-03T03:25:57;6.95;;;2.25;;
75218;SDS011;63801;49.414;19.474;2023-04-03T03:28:02;10.30;;;4.78;;
75218;SDS011;63801;49.414;19.474;2023-04-03T03:30:02;4.47;;;2.35;;
75218;SDS011;63801;49.414;19.474;2023-04-03T03:32:03;8.60;;;3.72;;
75218;SDS011;63801;49.414;19.474;2023-04-03T03:34:04;16.25;;;7.03;;
75218;SDS011;63801;49.414;19.474;2023-04-03T03:36:04;6.93;;;3.30;;
75218;SDS011;63801;49.414;19.474;2023-04-03T03:38:05;6.25;;;3.20;;
75218;SDS011;63801;49.414;19.474;2023-04-03T03:40:06;2.95;;;1.75;;
75218;SDS011;63801;49.414;19.474;2023-04-03T03:42:06;2.72;;;1.70;;
75218;SDS011;63801;49.414;19.474;2023-04-03T03:44:07;2.22;;;1.30;;
75218;SDS011;63801;49.414;19.474;2023-04-03T03:46:07;2.78;;;1.20;;
75218;SDS011;63801;49.414;19.474;2023-04-03T03:48:07;1.55;;;1.05;;
75218;SDS011;63801;49.414;19.474;2023-04-03T03:50:08;1.95;;;1.13;;
75218;SDS011;63801;49.414;19.474;2023-04-03T03:52:08;1.10;;;1.00;;
75218;SDS011;63801;49.414;19.474;2023-04-03T03:54:10;1.80;;;1.02;;
75218;SDS011;63801;49.414;19.474;2023-04-03T03:56:11;2.47;;;1.20;;
75218;SDS011;63801;49.414;19.474;2023-04-03T03:58:11;3.13;;;1.20;;
75218;SDS011;63801;49.414;19.474;2023-04-03T04:00:11;2.60;;;1.38;;
75218;SDS011;63801;49.414;19.474;2023-04-03T04:02:12;1.67;;;1.20;;
75218;SDS011;63801;49.414;19.474;2023-04-03T04:04:12;2.60;;;1.33;;
75218;SDS011;63801;49.414;19.474;2023-04-03T04:06:13;2.95;;;1.48;;
75218;SDS011;63801;49.414;19.474;2023-04-03T04:08:13;2.08;;;1.52;;
75218;SDS011;63801;49.414;19.474;2023-04-03T04:10:14;1.98;;;1.25;;
75218;SDS011;63801;49.414;19.474;2023-04-03T04:12:14;2.53;;;1.60;;
75218;SDS011;63801;49.414;19.474;2023-04-03T04:14:15;2.20;;;1.50;;
75218;SDS011;63801;49.414;19.474;2023-04-03T04:16:16;1.83;;;1.30;;
75218;SDS011;63801;49.414;19.474;2023-04-03T04:18:16;2.20;;;1.50;;
75218;SDS011;63801;49.414;19.474;2023-04-03T04:20:17;1.98;;;1.50;;
75218;SDS011;63801;49.414;19.474;2023-04-03T04:22:18;2.78;;;1.75;;
75218;SDS011;63801;49.414;19.474;2023-04-03T04:24:18;3.05;;;1.80;;
75218;SDS011;63801;49.414;19.474;2023-04-03T04:26:18;3.42;;;2.10;;
75218;SDS011;63801;49.414;19.474;2023-04-03T04:28:20;3.47;;;1.90;;
75218;SDS011;63801;49.414;19.474;2023-04-03T04:30:20;4.22;;;2.17;;
75218;SDS011;63801;49.414;19.474;2023-04-03T04:32:20;2.95;;;2.00;;
75218;SDS011;63801;49.414;19.474;2023-04-03T04:34:21;3.38;;;1.60;;
75218;SDS011;63801;49.414;19.474;2023-04-03T04:36:21;2.83;;;1.50;;
75218;SDS011;63801;49.414;19.474;2023-04-03T04:38:21;4.13;;;1.98;;
75218;SDS011;63801;49.414;19.474;2023-04-03T04:40:22;2.97;;;1.77;;
75218;SDS011;63801;49.414;19.474;2023-04-03T04:42:22;2.42;;;1.90;;
75218;SDS011;63801;49.414;19.474;2023-04-03T04:44:22;4.28;;;2.22;;
75218;SDS011;63801;49.414;19.474;2023-04-03T04:46:23;3.30;;;2.05;;
75218;SDS011;63801;49.414;19.474;2023-04-03T04:48:23;2.97;;;2.00;;
75218;SDS011;63801;49.414;19.474;2023-04-03T04:50:30;2.63;;;1.98;;
75218;SDS011;63801;49.414;19.474;2023-04-03T04:52:30;5.75;;;2.63;;
75218;SDS011;63801;49.414;19.474;2023-04-03T04:54:31;4.68;;;2.38;;
75218;SDS011;63801;49.414;19.474;2023-04-03T04:56:31;4.82;;;2.42;;
75218;SDS011;63801;49.414;19.474;2023-04-03T04:58:31;4.28;;;2.53;;
75218;SDS011;63801;49.414;19.474;2023-04-03T05:00:32;3.60;;;2.05;;
75218;SDS011;63801;49.414;19.474;2023-04-03T05:02:32;4.20;;;2.40;;
75218;SDS011;63801;49.414;19.474;2023-04-03T05:04:32;3.30;;;2.30;;
75218;SDS011;63801;49.414;19.474;2023-04-03T05:06:33;3.75;;;1.98;;
75218;SDS011;63801;49.414;19.474;2023-04-03T05:08:35;3.25;;;2.03;;
75218;SDS011;63801;49.414;19.474;2023-04-03T05:10:35;3.72;;;1.60;;
75218;SDS011;63801;49.414;19.474;2023-04-03T05:12:35;3.13;;;1.70;;
75218;SDS011;63801;49.414;19.474;2023-04-03T05:14:36;3.97;;;2.30;;
75218;SDS011;63801;49.414;19.474;2023-04-03T05:16:36;3.22;;;1.90;;
75218;SDS011;63801;49.414;19.474;2023-04-03T05:18:37;3.25;;;2.15;;
75218;SDS011;63801;49.414;19.474;2023-04-03T05:20:37;3.65;;;2.05;;
75218;SDS011;63801;49.414;19.474;2023-04-03T05:22:37;4.72;;;1.95;;
75218;SDS011;63801;49.414;19.474;2023-04-03T05:24:38;3.83;;;2.33;;
75218;SDS011;63801;49.414;19.474;2023-04-03T05:26:38;4.25;;;2.50;;
75218;SDS011;63801;49.414;19.474;2023-04-03T05:28:39;7.18;;;3.33;;
75218;SDS011;63801;49.414;19.474;2023-04-03T05:30:39;3.47;;;1.98;;
75218;SDS011;63801;49.414;19.474;2023-04-03T05:32:39;4.65;;;1.73;;
75218;SDS011;63801;49.414;19.474;2023-04-03T05:34:40;4.00;;;1.70;;
75218;SDS011;63801;49.414;19.474;2023-04-03T05:36:41;3.67;;;2.00;;
75218;SDS011;63801;49.414;19.474;2023-04-03T05:38:42;3.40;;;2.00;;
75218;SDS011;63801;49.414;19.474;2023-04-03T05:40:42;3.67;;;2.03;;
75218;SDS011;63801;49.414;19.474;2023-04-03T05:42:42;3.90;;;2.15;;
75218;SDS011;63801;49.414;19.474;2023-04-03T05:44:42;4.03;;;2.45;;
75218;SDS011;63801;49.414;19.474;2023-04-03T05:46:44;6.38;;;2.50;;
75218;SDS011;63801;49.414;19.474;2023-04-03T05:48:44;8.18;;;3.50;;
75218;SDS011;63801;49.414;19.474;2023-04-03T05:50:45;4.22;;;2.10;;
75218;SDS011;63801;49.414;19.474;2023-04-03T05:52:46;6.28;;;3.00;;
75218;SDS011;63801;49.414;19.474;2023-04-03T05:54:49;7.47;;;3.55;;
75218;SDS011;63801;49.414;19.474;2023-04-03T05:56:50;8.73;;;4.43;;
75218;SDS011;63801;49.414;19.474;2023-04-03T05:58:51;10.73;;;4.80;;
75218;SDS011;63801;49.414;19.474;2023-04-03T06:00:51;7.05;;;3.63;;
75218;SDS011;63801;49.414;19.474;2023-04-03T06:02:52;10.30;;;4.45;;
75218;SDS011;63801;49.414;19.474;2023-04-03T06:04:52;8.32;;;3.63;;
75218;SDS011;63801;49.414;19.474;2023-04-03T06:06:53;9.63;;;4.55;;
75218;SDS011;63801;49.414;19.474;2023-04-03T06:08:57;9.65;;;4.30;;
75218;SDS011;63801;49.414;19.474;2023-04-03T06:10:57;7.03;;;3.22;;
75218;SDS011;63801;49.414;19.474;2023-04-03T06:12:57;5.75;;;2.97;;
75218;SDS011;63801;49.414;19.474;2023-04-03T06:14:58;3.95;;;2.33;;
75218;SDS011;63801;49.414;19.474;2023-04-03T06:16:58;4.45;;;2.40;;
75218;SDS011;63801;49.414;19.474;2023-04-03T06:18:59;5.25;;;2.38;;
75218;SDS011;63801;49.414;19.474;2023-04-03T06:21:00;5.13;;;2.58;;
75218;SDS011;63801;49.414;19.474;2023-04-03T06:23:02;4.97;;;2.28;;
75218;SDS011;63801;49.414;19.474;2023-04-03T06:25:03;8.05;;;2.35;;
75218;SDS011;63801;49.414;19.474;2023-04-03T06:27:04;5.87;;;2.70;;
75218;SDS011;63801;49.414;19.474;2023-04-03T06:29:05;7.75;;;3.90;;
75218;SDS011;63801;49.414;19.474;2023-04-03T06:31:05;9.60;;;4.47;;
75218;SDS011;63801;49.414;19.474;2023-04-03T06:33:05;15.00;;;5.68;;
75218;SDS011;63801;49.414;19.474;2023-04-03T06:35:06;15.02;;;7.25;;
75218;SDS011;63801;49.414;19.474;2023-04-03T06:37:16;18.40;;;6.93;;
75218;SDS011;63801;49.414;19.474;2023-04-03T06:39:19;22.45;;;7.32;;
75218;SDS011;63801;49.414;19.474;2023-04-03T06:41:22;10.93;;;4.00;;
75218;SDS011;63801;49.414;19.474;2023-04-03T06:43:22;6.30;;;3.13;;
75218;SDS011;63801;49.414;19.474;2023-04-03T06:45:22;4.30;;;2.20;;
75218;SDS011;63801;49.414;19.474;2023-04-03T06:47:25;4.13;;;1.98;;
75218;SDS011;63801;49.414;19.474;2023-04-03T06:49:25;4.28;;;2.20;;
75218;SDS011;63801;49.414;19.474;2023-04-03T06:51:27;6.68;;;2.75;;
75218;SDS011;63801;49.414;19.474;2023-04-03T06:53:28;6.90;;;2.75;;
75218;SDS011;63801;49.414;19.474;2023-04-03T06:55:28;5.50;;;2.50;;
75218;SDS011;63801;49.414;19.474;2023-04-03T06:57:29;3.58;;;1.90;;
75218;SDS011;63801;49.414;19.474;2023-04-03T06:59:29;4.20;;;2.15;;
75218;SDS011;63801;49.414;19.474;2023-04-03T07:01:30;8.13;;;3.65;;
75218;SDS011;63801;49.414;19.474;2023-04-03T07:03:30;8.88;;;3.83;;
75218;SDS011;63801;49.414;19.474;2023-04-03T07:05:31;10.27;;;4.53;;
75218;SDS011;63801;49.414;19.474;2023-04-03T07:07:31;9.82;;;3.80;;
75218;SDS011;63801;49.414;19.474;2023-04-03T07:09:33;6.63;;;2.45;;
75218;SDS011;63801;49.414;19.474;2023-04-03T07:11:34;3.65;;;1.80;;
75218;SDS011;63801;49.414;19.474;2023-04-03T07:13:36;5.72;;;2.35;;
75218;SDS011;63801;49.414;19.474;2023-04-03T07:15:37;10.93;;;4.38;;
75218;SDS011;63801;49.414;19.474;2023-04-03T07:17:37;2.97;;;1.55;;
75218;SDS011;63801;49.414;19.474;2023-04-03T07:19:37;2.63;;;1.85;;
75218;SDS011;63801;49.414;19.474;2023-04-03T07:21:37;3.47;;;1.52;;
75218;SDS011;63801;49.414;19.474;2023-04-03T07:23:38;7.95;;;2.80;;
75218;SDS011;63801;49.414;19.474;2023-04-03T07:25:45;13.80;;;4.93;;
75218;SDS011;63801;49.414;19.474;2023-04-03T07:27:46;6.05;;;2.70;;
75218;SDS011;63801;49.414;19.474;2023-04-03T07:29:47;9.88;;;3.70;;
75218;SDS011;63801;49.414;19.474;2023-04-03T07:31:48;10.02;;;3.67;;
75218;SDS011;63801;49.414;19.474;2023-04-03T07:33:49;9.13;;;4.53;;
75218;SDS011;63801;49.414;19.474;2023-04-03T07:35:49;4.93;;;2.60;;
75218;SDS011;63801;49.414;19.474;2023-04-03T07:37:50;4.75;;;2.45;;
75218;SDS011;63801;49.414;19.474;2023-04-03T07:39:50;3.45;;;2.00;;
75218;SDS011;63801;49.414;19.474;2023-04-03T07:41:51;10.60;;;4.72;;
75218;SDS011;63801;49.414;19.474;2023-04-03T07:43:51;32.63;;;10.07;;
75218;SDS011;63801;49.414;19.474;2023-04-03T07:45:52;3.50;;;2.13;;
75218;SDS011;63801;49.414;19.474;2023-04-03T07:47:54;3.72;;;1.88;;
75218;SDS011;63801;49.414;19.474;2023-04-03T07:49:54;3.60;;;1.85;;
75218;SDS011;63801;49.414;19.474;2023-04-03T07:51:57;2.08;;;1.55;;
75218;SDS011;63801;49.414;19.474;2023-04-03T07:53:58;4.47;;;2.28;;
75218;SDS011;63801;49.414;19.474;2023-04-03T07:55:58;3.65;;;1.90;;
75218;SDS011;63801;49.414;19.474;2023-04-03T07:58:00;5.32;;;2.22;;
75218;SDS011;63801;49.414;19.474;2023-04-03T08:00:00;5.63;;;2.72;;
75218;SDS011;63801;49.414;19.474;2023-04-03T08:02:01;6.88;;;3.10;;
75218;SDS011;63801;49.414;19.474;2023-04-03T08:04:02;253.98;;;72.78;;
75218;SDS011;63801;49.414;19.474;2023-04-03T08:06:03;91.07;;;52.67;;
75218;SDS011;63801;49.414;19.474;2023-04-03T08:08:05;84.20;;;44.50;;
75218;SDS011;63801;49.414;19.474;2023-04-03T08:10:06;27.95;;;15.93;;
75218;SDS011;63801;49.414;19.474;2023-04-03T08:12:07;30.27;;;18.55;;
75218;SDS011;63801;49.414;19.474;2023-04-03T08:14:07;72.75;;;40.65;;
75218;SDS011;63801;49.414;19.474;2023-04-03T08:16:09;33.15;;;18.90;;
75218;SDS011;63801;49.414;19.474;2023-04-03T08:18:11;26.30;;;16.77;;
75218;SDS011;63801;49.414;19.474;2023-04-03T08:20:11;2.97;;;1.63;;
75218;SDS011;63801;49.414;19.474;2023-04-03T08:22:11;13.80;;;8.40;;
75218;SDS011;63801;49.414;19.474;2023-04-03T08:24:12;15.65;;;10.80;;
75218;SDS011;63801;49.414;19.474;2023-04-03T08:26:13;6.38;;;2.63;;
75218;SDS011;63801;49.414;19.474;2023-04-03T08:28:16;31.20;;;19.30;;
75218;SDS011;63801;49.414;19.474;2023-04-03T08:30:16;62.88;;;38.15;;
75218;SDS011;63801;49.414;19.474;2023-04-03T08:32:17;57.40;;;30.75;;
75218;SDS011;63801;49.414;19.474;2023-04-03T08:34:18;22.17;;;12.32;;
75218;SDS011;63801;49.414;19.474;2023-04-03T08:36:22;21.70;;;12.48;;
75218;SDS011;63801;49.414;19.474;2023-04-03T08:38:25;51.78;;;23.90;;
75218;SDS011;63801;49.414;19.474;2023-04-03T08:40:25;44.10;;;19.63;;
75218;SDS011;63801;49.414;19.474;2023-04-03T08:42:31;24.10;;;12.65;;
75218;SDS011;63801;49.414;19.474;2023-04-03T08:44:46;12.43;;;6.72;;
75218;SDS011;63801;49.414;19.474;2023-04-03T08:49:33;22.70;;;10.93;;
75218;SDS011;63801;49.414;19.474;2023-04-03T08:51:48;21.17;;;13.90;;
75218;SDS011;63801;49.414;19.474;2023-04-03T08:53:55;35.17;;;21.08;;
75218;SDS011;63801;49.414;19.474;2023-04-03T08:56:02;31.42;;;17.98;;
75218;SDS011;63801;49.414;19.474;2023-04-03T08:58:12;77.30;;;37.78;;
75218;SDS011;63801;49.414;19.474;2023-04-03T09:00:19;175.18;;;78.82;;
75218;SDS011;63801;49.414;19.474;2023-04-03T09:02:24;71.78;;;36.35;;
75218;SDS011;63801;49.414;19.474;2023-04-03T09:04:29;57.97;;;36.35;;
75218;SDS011;63801;49.414;19.474;2023-04-03T09:06:32;51.83;;;33.08;;
75218;SDS011;63801;49.414;19.474;2023-04-03T09:08:36;80.00;;;58.67;;
75218;SDS011;63801;49.414;19.474;2023-04-03T09:10:43;15.20;;;9.75;;
75218;SDS011;63801;49.414;19.474;2023-04-03T09:12:48;20.05;;;13.23;;
75218;SDS011;63801;49.414;19.474;2023-04-03T09:17:00;68.00;;;43.90;;
75218;SDS011;63801;49.414;19.474;2023-04-03T09:19:08;32.67;;;19.75;;
75218;SDS011;63801;49.414;19.474;2023-04-03T09:21:31;14.77;;;8.43;;
75218;SDS011;63801;49.414;19.474;2023-04-03T09:25:45;117.15;;;60.05;;
75218;SDS011;63801;49.414;19.474;2023-04-03T09:27:46;35.70;;;20.08;;
75218;SDS011;63801;49.414;19.474;2023-04-03T09:29:46;80.32;;;40.40;;
75218;SDS011;63801;49.414;19.474;2023-04-03T09:31:49;25.42;;;12.90;;
75218;SDS011;63801;49.414;19.474;2023-04-03T09:33:54;69.10;;;39.10;;
75218;SDS011;63801;49.414;19.474;2023-04-03T09:35:59;20.05;;;12.32;;
75218;SDS011;63801;49.414;19.474;2023-04-03T09:42:25;27.08;;;18.65;;
75218;SDS011;63801;49.414;19.474;2023-04-03T09:44:30;13.98;;;8.15;;
75218;SDS011;63801;49.414;19.474;2023-04-03T09:46:33;35.65;;;24.90;;
75218;SDS011;63801;49.414;19.474;2023-04-03T09:48:34;8.00;;;4.65;;
75218;SDS011;63801;49.414;19.474;2023-04-03T09:50:35;9.73;;;5.93;;
75218;SDS011;63801;49.414;19.474;2023-04-03T09:52:35;23.60;;;15.45;;
75218;SDS011;63801;49.414;19.474;2023-04-03T09:54:36;12.10;;;6.38;;
75218;SDS011;63801;49.414;19.474;2023-04-03T09:56:39;11.45;;;5.97;;
75218;SDS011;63801;49.414;19.474;2023-04-03T09:58:40;27.58;;;15.13;;
75218;SDS011;63801;49.414;19.474;2023-04-03T10:00:42;30.92;;;16.58;;
75218;SDS011;63801;49.414;19.474;2023-04-03T10:02:43;28.20;;;16.10;;
75218;SDS011;63801;49.414;19.474;2023-04-03T10:04:43;9.00;;;3.40;;
75218;SDS011;63801;49.414;19.474;2023-04-03T10:06:54;32.17;;;17.40;;
75218;SDS011;63801;49.414;19.474;2023-04-03T10:08:59;16.55;;;7.45;;
75218;SDS011;63801;49.414;19.474;2023-04-03T10:11:08;15.35;;;10.20;;
75218;SDS011;63801;49.414;19.474;2023-04-03T10:13:20;16.88;;;13.85;;
75218;SDS011;63801;49.414;19.474;2023-04-03T10:15:21;14.88;;;10.63;;
75218;SDS011;63801;49.414;19.474;2023-04-03T10:19:53;9.50;;;6.80;;
75218;SDS011;63801;49.414;19.474;2023-04-03T10:22:06;10.07;;;4.55;;
75218;SDS011;63801;49.414;19.474;2023-04-03T10:24:23;8.98;;;4.90;;
75218;SDS011;63801;49.414;19.474;2023-04-03T10:26:33;10.40;;;5.10;;
75218;SDS011;63801;49.414;19.474;2023-04-03T10:28:51;36.40;;;24.85;;
75218;SDS011;63801;49.414;19.474;2023-04-03T10:31:13;14.38;;;8.80;;
75218;SDS011;63801;49.414;19.474;2023-04-03T10:35:50;12.90;;;7.75;;
75218;SDS011;63801;49.414;19.474;2023-04-03T10:37:56;8.23;;;5.07;;
75218;SDS011;63801;49.414;19.474;2023-04-03T10:40:05;9.73;;;5.30;;
75218;SDS011;63801;49.414;19.474;2023-04-03T10:49:19;5.45;;;2.60;;
75218;SDS011;63801;49.414;19.474;2023-04-03T10:51:37;4.10;;;2.72;;
75218;SDS011;63801;49.414;19.474;2023-04-03T10:53:49;5.45;;;2.33;;
75218;SDS011;63801;49.414;19.474;2023-04-03T10:56:00;11.63;;;8.13;;
75218;SDS011;63801;49.414;19.474;2023-04-03T10:58:05;42.65;;;34.05;;
75218;SDS011;63801;49.414;19.474;2023-04-03T11:00:19;18.63;;;12.02;;
75218;SDS011;63801;49.414;19.474;2023-04-03T11:02:24;38.53;;;24.67;;
75218;SDS011;63801;49.414;19.474;2023-04-03T11:04:29;26.63;;;15.38;;
75218;SDS011;63801;49.414;19.474;2023-04-03T11:06:45;11.32;;;6.00;;
75218;SDS011;63801;49.414;19.474;2023-04-03T11:08:58;14.23;;;7.85;;
75218;SDS011;63801;49.414;19.474;2023-04-03T11:11:05;14.07;;;11.20;;
75218;SDS011;63801;49.414;19.474;2023-04-03T11:13:17;8.35;;;3.33;;
75218;SDS011;63801;49.414;19.474;2023-04-03T11:15:22;10.80;;;8.80;;
75218;SDS011;63801;49.414;19.474;2023-04-03T11:17:35;16.80;;;13.27;;
75218;SDS011;63801;49.414;19.474;2023-04-03T11:21:54;16.27;;;12.32;;
75218;SDS011;63801;49.414;19.474;2023-04-03T11:24:01;16.08;;;11.80;;
75218;SDS011;63801;49.414;19.474;2023-04-03T11:26:09;16.92;;;11.35;;
75218;SDS011;63801;49.414;19.474;2023-04-03T11:28:12;21.77;;;13.82;;
75218;SDS011;63801;49.414;19.474;2023-04-03T11:30:21;21.40;;;9.40;;
75218;SDS011;63801;49.414;19.474;2023-04-03T11:34:51;4.85;;;2.42;;
75218;SDS011;63801;49.414;19.474;2023-04-03T11:36:58;3.47;;;2.10;;
75218;SDS011;63801;49.414;19.474;2023-04-03T11:39:04;7.32;;;4.72;;
75218;SDS011;63801;49.414;19.474;2023-04-03T11:41:16;9.10;;;4.50;;
75218;SDS011;63801;49.414;19.474;2023-04-03T11:43:29;23.83;;;10.40;;
75218;SDS011;63801;49.414;19.474;2023-04-03T11:45:33;14.65;;;6.70;;
75218;SDS011;63801;49.414;19.474;2023-04-03T11:47:43;41.63;;;19.33;;
75218;SDS011;63801;49.414;19.474;2023-04-03T11:51:53;39.03;;;17.05;;
75218;SDS011;63801;49.414;19.474;2023-04-03T11:53:53;49.20;;;25.92;;
75218;SDS011;63801;49.414;19.474;2023-04-03T11:55:55;12.13;;;7.70;;
75218;SDS011;63801;49.414;19.474;2023-04-03T11:59:57;28.05;;;14.35;;
75218;SDS011;63801;49.414;19.474;2023-04-03T12:01:57;29.45;;;16.23;;
75218;SDS011;63801;49.414;19.474;2023-04-03T12:04:07;11.48;;;6.47;;
75218;SDS011;63801;49.414;19.474;2023-04-03T12:10:50;15.80;;;8.45;;
75218;SDS011;63801;49.414;19.474;2023-04-03T12:13:23;11.48;;;5.97;;
75218;SDS011;63801;49.414;19.474;2023-04-03T12:15:25;14.95;;;7.30;;
75218;SDS011;63801;49.414;19.474;2023-04-03T12:17:46;19.08;;;10.50;;
75218;SDS011;63801;49.414;19.474;2023-04-03T12:19:53;11.35;;;5.28;;
75218;SDS011;63801;49.414;19.474;2023-04-03T12:26:20;17.48;;;10.60;;
75218;SDS011;63801;49.414;19.474;2023-04-03T12:28:22;36.13;;;21.00;;
75218;SDS011;63801;49.414;19.474;2023-04-03T12:30:27;17.03;;;8.83;;
75218;SDS011;63801;49.414;19.474;2023-04-03T12:34:45;21.63;;;13.40;;
75218;SDS011;63801;49.414;19.474;2023-04-03T12:41:56;29.33;;;14.48;;
75218;SDS011;63801;49.414;19.474;2023-04-03T12:44:17;13.05;;;6.28;;
75218;SDS011;63801;49.414;19.474;2023-04-03T12:46:24;12.80;;;4.93;;
75218;SDS011;63801;49.414;19.474;2023-04-03T12:48:39;12.82;;;6.07;;
75218;SDS011;63801;49.414;19.474;2023-04-03T12:50:46;47.70;;;21.38;;
75218;SDS011;63801;49.414;19.474;2023-04-03T12:52:50;28.75;;;13.80;;
75218;SDS011;63801;49.414;19.474;2023-04-03T12:54:54;22.15;;;10.38;;
75218;SDS011;63801;49.414;19.474;2023-04-03T12:59:33;25.17;;;12.73;;
75218;SDS011;63801;49.414;19.474;2023-04-03T13:01:33;126.15;;;45.30;;